WetterOnline ( https://www.wetteronline.de )

Wetter aktuell Dresden

Aktuelles Wetter: Dresden/Klotzsche (232m)

6-stündlich | Neueste Meldungen
Ortszeit Temperatur Wetter
Mo, 06.07. 2:00 21.2° C fast wolkenlos
So, 05.07. 20:00 24.7° C fast wolkenlos
So, 05.07. 14:00 25.6° C bedeckt
So, 05.07. 8:00 21.7° C bewölkt
So, 05.07. 2:00 20.9° C wolkig
Sa, 04.07. 20:00 24.5° C leicht bewölkt
Sa, 04.07. 14:00 25.1° C leicht bewölkt
Sa, 04.07. 8:00 18.2° C fast wolkenlos
Ortszeit Temperatur Wetter
Mo, 06.07. 2:00 21.2° C fast wolkenlos
Mo, 06.07. 1:50 21.2° C wolkenlos
Mo, 06.07. 1:40 21.0° C fast wolkenlos
Mo, 06.07. 1:30 21.9° C wolkig
Mo, 06.07. 1:20 21.9° C wolkig
Mo, 06.07. 1:10 22.3° C bewölkt
Mo, 06.07. 1:00 22.8° C bewölkt
Mo, 06.07. 0:30 23.0° C bedeckt
Mo, 06.07. 0:00 22.6° C bewölkt
So, 05.07. 23:30 22.8° C bewölkt
So, 05.07. 23:00 22.6° C leicht bewölkt
Ortszeit Relative Feuchte Sichtweite
Mo, 06.07. 2:00 64% 70 km
So, 05.07. 20:00 53% 70 km
So, 05.07. 14:00 48% >70 km
So, 05.07. 8:00 54% 60 km
So, 05.07. 2:00 50% 65 km
Sa, 04.07. 20:00 37% 60 km
Sa, 04.07. 14:00 35% 60 km
Sa, 04.07. 8:00 58% 60 km
Ortszeit Relative Feuchte Sichtweite
Mo, 06.07. 2:00 64% 70 km
Mo, 06.07. 1:50 64% -
Mo, 06.07. 1:40 65% -
Mo, 06.07. 1:30 62% 60 km
Mo, 06.07. 1:20 62% -
Mo, 06.07. 1:10 61% -
Mo, 06.07. 1:00 59% 70 km
Mo, 06.07. 0:30 59% >70 km
Mo, 06.07. 0:00 60% 70 km
So, 05.07. 23:30 59% 65 km
So, 05.07. 23:00 59% 70 km
Ortszeit Niederschlagsmenge Niederschlagsart
Mo, 06.07. 2:00 0.0 l/m2 in 6 Std. -
So, 05.07. 20:00 0.0 l/m2 in 12 Std. -
So, 05.07. 14:00 0.0 l/m2 in 6 Std. -
So, 05.07. 8:00 0.1 l/m2 in 12 Std. Regen
So, 05.07. 2:00 0.0 l/m2 in 6 Std. -
Sa, 04.07. 20:00 0.0 l/m2 in 12 Std. -
Sa, 04.07. 14:00 0.0 l/m2 in 6 Std. -
Sa, 04.07. 8:00 0.0 l/m2 in 12 Std. -
Ortszeit Niederschlagsmenge Niederschlagsart
Mo, 06.07. 2:00 0.0 l/m2 in 1 Std. -
Mo, 06.07. 1:50 keine Meldung -
Mo, 06.07. 1:40 keine Meldung -
Mo, 06.07. 1:30 0.0 l/m2 in 1 Std. -
Mo, 06.07. 1:20 keine Meldung -
Mo, 06.07. 1:10 keine Meldung -
Mo, 06.07. 1:00 0.0 l/m2 in 1 Std. -
Mo, 06.07. 0:30 0.0 l/m2 in 1 Std. -
Mo, 06.07. 0:00 0.0 l/m2 in 1 Std. -
So, 05.07. 23:30 0.0 l/m2 in 1 Std. -
So, 05.07. 23:00 0.0 l/m2 in 1 Std. -
Ortszeit Stärke Spitze Richtung
km/h Bft. km/h Grad Sektor
Mo, 06.07. 2:00 11 2 40 220° SW
So, 05.07. 20:00 29 5 50 240° SW
So, 05.07. 14:00 31 5 50 240° SW
So, 05.07. 8:00 18 3 36 220° SW
So, 05.07. 2:00 17 3 33 210° SW
Sa, 04.07. 20:00 17 3 43 240° SW
Sa, 04.07. 14:00 22 4 47 230° SW
Sa, 04.07. 8:00 14 3 22 180° S
Ortszeit Stärke Spitze Richtung
km/h Bft. km/h Grad Sektor
Mo, 06.07. 2:00 11 2 22 220° SW
Mo, 06.07. 1:50 11 2 - 220° SW
Mo, 06.07. 1:40 11 2 - 220° SW
Mo, 06.07. 1:30 14 3 22 220° SW
Mo, 06.07. 1:20 14 3 - 220° SW
Mo, 06.07. 1:10 14 3 - 220° SW
Mo, 06.07. 1:00 15 3 35 220° SW
Mo, 06.07. 0:30 22 4 36 230° SW
Mo, 06.07. 0:00 18 3 29 220° SW
So, 05.07. 23:30 18 3 29 220° SW
So, 05.07. 23:00 19 3 28 210° SW
Ortszeit Untergrenze Bedeckung Gattung
total tief tief mittel hoch
Mo, 06.07. 2:00 1800 m 2/8 2/8 Sc - -
So, 05.07. 20:00 1260 m 1/8 1/8 Cu - -
So, 05.07. 14:00 1350 m 8/8 7/8 Cu - -
So, 05.07. 8:00 1500 m 7/8 5/8 Sc As -
So, 05.07. 2:00 1500 m 6/8 5/8 Sc Ac Ci
Sa, 04.07. 20:00 1800 m 5/8 1/8 Sc Ac Ci
Sa, 04.07. 14:00 1800 m 5/8 1/8 Cu - Ci
Sa, 04.07. 8:00 9000 m 1/8 0/8 - - Ci
Ortszeit Bedeckungsgrad in Achtel und Wolkenuntergrenze
Mo, 06.07. 2:00 1(1800m)
Mo, 06.07. 1:50 keine Wolken
Mo, 06.07. 1:40 1(1800m)
Mo, 06.07. 1:30 2(1800m) 5(2100m)
Mo, 06.07. 1:20 2(1800m) 5(2100m)
Mo, 06.07. 1:10 1(1800m) 7(2100m)
Mo, 06.07. 1:00 6(2100m)
Mo, 06.07. 0:30 8(2100m)
Mo, 06.07. 0:00 6(2100m)
So, 05.07. 23:30 7(2100m)
So, 05.07. 23:00 2(2100m) 3(2400m)
Ortszeit Luftdruck NN (hPa) Tendenz (hPa in 3 Std.)
Mo, 06.07. 2:00 1010 - 0,7
So, 05.07. 20:00 1010 - 0,9
So, 05.07. 14:00 1012 - 0,6
So, 05.07. 8:00 1013 - 0,2
So, 05.07. 2:00 1014 - 0,2
Sa, 04.07. 20:00 1014 - 0,5
Sa, 04.07. 14:00 1016 - 1,1
Sa, 04.07. 8:00 1017 - 0,2
Ortszeit Luftdruck NN (hPa) Tendenz (hPa in 3 Std.)
Mo, 06.07. 2:00 1010 - 0,7
Mo, 06.07. 1:50 1010 keine Meldung
Mo, 06.07. 1:40 1010 keine Meldung
Mo, 06.07. 1:30 1010 - 0,9
Mo, 06.07. 1:20 1010 keine Meldung
Mo, 06.07. 1:10 1010 keine Meldung
Mo, 06.07. 1:00 1010 - 0,8
Mo, 06.07. 0:30 1010 - 0,5
Mo, 06.07. 0:00 1010 - 0,2
So, 05.07. 23:30 1010 - 0,2
So, 05.07. 23:00 1010 - 0,2
Ortszeit Schneehöhe (cm)
Mo, 06.07. 2:00 0
So, 05.07. 20:00 0
So, 05.07. 14:00 0
So, 05.07. 8:00 0
So, 05.07. 2:00 0
Sa, 04.07. 20:00 0
Sa, 04.07. 14:00 0
Sa, 04.07. 8:00 0
Ortszeit Schneehöhe (cm)
Mo, 06.07. 2:00 0
Mo, 06.07. 1:50 -
Mo, 06.07. 1:40 -
Mo, 06.07. 1:30 -
Mo, 06.07. 1:20 -
Mo, 06.07. 1:10 -
Mo, 06.07. 1:00 -
Mo, 06.07. 0:30 -
Mo, 06.07. 0:00 -
So, 05.07. 23:30 -
So, 05.07. 23:00 -
Link zu dieser Seite / Seite empfehlen

Das Wetter in ...